createdAt,value
2022-07-25T00:02:07.313Z,21.44
2022-07-25T00:04:48.832Z,21.53
2022-07-25T00:07:32.623Z,21.29
2022-07-25T00:10:04.430Z,21.28
2022-07-25T00:12:32.894Z,21.34
2022-07-25T00:15:04.142Z,21.63
2022-07-25T00:17:39.815Z,21.15
2022-07-25T00:20:19.561Z,21.11
2022-07-25T00:22:50.887Z,21.39
2022-07-25T00:25:24.337Z,20.98
2022-07-25T00:27:55.302Z,20.97
2022-07-25T00:30:24.695Z,21.14
2022-07-25T00:33:02.463Z,21.21
2022-07-25T00:35:45.136Z,21.13
2022-07-25T00:38:17.490Z,20.97
2022-07-25T00:40:53.556Z,21.00
2022-07-25T00:43:30.012Z,20.75
2022-07-25T00:46:02.263Z,20.90
2022-07-25T00:48:58.006Z,20.70
2022-07-25T00:51:29.067Z,20.41
2022-07-25T00:54:01.530Z,20.49
2022-07-25T00:56:30.316Z,20.64
2022-07-25T00:59:06.823Z,20.79
2022-07-25T01:01:46.249Z,21.08
2022-07-25T01:04:49.597Z,21.15
2022-07-25T01:07:20.926Z,20.99
2022-07-25T01:09:58.082Z,20.98
2022-07-25T01:12:44.448Z,21.13
2022-07-25T01:15:21.388Z,20.90
2022-07-25T01:17:52.193Z,20.77
2022-07-25T01:20:30.180Z,20.84
2022-07-25T01:22:58.997Z,20.44
2022-07-25T01:25:37.062Z,20.17
2022-07-25T01:28:17.266Z,20.51
2022-07-25T01:30:53.334Z,20.54
2022-07-25T01:33:29.625Z,20.24
2022-07-25T01:36:03.298Z,20.32
2022-07-25T01:38:47.605Z,20.26
2022-07-25T01:41:26.658Z,20.28
2022-07-25T01:44:00.757Z,20.06
2022-07-25T01:46:34.358Z,19.91
2022-07-25T01:49:08.485Z,20.15
2022-07-25T01:51:41.164Z,20.35
2022-07-25T01:54:18.294Z,20.31
2022-07-25T01:56:52.983Z,20.04
2022-07-25T01:59:30.647Z,20.22
2022-07-25T02:02:01.283Z,20.41
2022-07-25T02:04:39.837Z,20.69
2022-07-25T02:07:24.179Z,20.73
2022-07-25T02:10:04.531Z,20.28
2022-07-25T02:12:36.426Z,20.56
2022-07-25T02:15:06.981Z,20.33
2022-07-25T02:17:39.961Z,20.31
2022-07-25T02:20:12.824Z,20.39
2022-07-25T02:23:03.184Z,20.50
2022-07-25T02:25:39.200Z,20.42
2022-07-25T02:28:15.252Z,20.33
2022-07-25T02:30:43.955Z,20.26
2022-07-25T02:33:13.022Z,20.19
2022-07-25T02:35:41.877Z,20.21
2022-07-25T02:38:16.502Z,19.79
2022-07-25T02:40:52.484Z,20.17
2022-07-25T02:43:27.627Z,20.40
2022-07-25T02:45:57.026Z,20.40
2022-07-25T02:48:28.994Z,20.34
2022-07-25T02:51:02.721Z,19.97
2022-07-25T02:53:56.701Z,19.89
2022-07-25T02:56:37.197Z,19.54
2022-07-25T02:59:15.250Z,19.48
2022-07-25T03:01:46.263Z,19.73
2022-07-25T03:04:17.770Z,19.82
2022-07-25T03:06:47.404Z,19.74
2022-07-25T03:09:18.009Z,19.67
2022-07-25T03:11:52.790Z,19.68
2022-07-25T03:14:30.288Z,19.90
2022-07-25T03:17:04.285Z,19.84
2022-07-25T03:19:36.251Z,19.67
2022-07-25T03:22:07.074Z,19.55
2022-07-25T03:24:39.823Z,19.62
2022-07-25T03:27:16.713Z,19.48
2022-07-25T03:30:01.146Z,19.53
2022-07-25T03:32:32.157Z,19.74
2022-07-25T03:35:03.961Z,19.85
2022-07-25T03:37:33.052Z,19.84
2022-07-25T03:40:13.208Z,19.76
2022-07-25T03:42:44.920Z,19.80
2022-07-25T03:45:16.999Z,19.94
2022-07-25T03:48:01.483Z,19.87
2022-07-25T03:50:34.300Z,20.05
2022-07-25T03:53:10.431Z,19.89
2022-07-25T03:55:45.678Z,19.93
2022-07-25T03:58:17.082Z,19.89
2022-07-25T04:00:53.978Z,19.61
2022-07-25T04:03:26.322Z,19.68
2022-07-25T04:05:59.280Z,19.64
2022-07-25T04:08:31.732Z,19.54
2022-07-25T04:11:02.066Z,19.47
2022-07-25T04:13:36.003Z,19.43
2022-07-25T04:16:14.619Z,19.47
2022-07-25T04:18:58.162Z,19.71
2022-07-25T04:21:34.021Z,19.60
2022-07-25T04:24:12.528Z,19.66
2022-07-25T04:26:46.922Z,19.65
2022-07-25T04:29:20.140Z,19.74
2022-07-25T04:31:52.151Z,20.07
2022-07-25T04:34:26.481Z,20.06
2022-07-25T04:36:58.318Z,19.94
2022-07-25T04:39:33.418Z,20.22
2022-07-25T04:42:14.375Z,20.45
2022-07-25T04:44:43.510Z,20.52
2022-07-25T04:47:13.298Z,20.70
2022-07-25T04:49:57.741Z,20.77
2022-07-25T04:52:29.907Z,20.88
2022-07-25T04:54:59.107Z,20.89
2022-07-25T04:57:28.705Z,20.85
2022-07-25T05:00:08.133Z,20.94
2022-07-25T05:02:49.983Z,21.00
2022-07-25T05:05:22.387Z,20.99
2022-07-25T05:07:53.678Z,21.20
2022-07-25T05:10:25.747Z,21.35
2022-07-25T05:12:53.998Z,21.32
2022-07-25T05:15:28.108Z,21.33
2022-07-25T05:17:59.975Z,21.44
2022-07-25T05:20:37.170Z,21.53
2022-07-25T05:23:13.410Z,21.38
2022-07-25T05:25:57.610Z,21.50
2022-07-25T05:28:31.918Z,21.55
2022-07-25T05:31:06.260Z,21.60
2022-07-25T05:33:49.135Z,21.59
2022-07-25T05:36:23.584Z,21.79
2022-07-25T05:38:57.521Z,21.93
2022-07-25T05:41:28.868Z,22.02
2022-07-25T05:44:02.106Z,22.08
2022-07-25T05:46:33.120Z,22.08
2022-07-25T05:49:13.827Z,22.09
2022-07-25T05:51:49.855Z,22.25
2022-07-25T05:54:30.345Z,22.33
2022-07-25T05:57:03.504Z,22.32
2022-07-25T05:59:36.391Z,22.44
2022-07-25T06:02:10.719Z,22.57
2022-07-25T06:04:46.508Z,22.71
2022-07-25T06:07:16.945Z,22.81
2022-07-25T06:09:55.290Z,22.95
2022-07-25T06:12:25.278Z,23.10
2022-07-25T06:14:57.687Z,23.11
2022-07-25T06:17:32.530Z,23.22
2022-07-25T06:20:05.311Z,22.98
2022-07-25T06:22:42.193Z,23.31
2022-07-25T06:25:24.441Z,23.26
2022-07-25T06:27:56.406Z,23.45
2022-07-25T06:33:12.715Z,23.51
2022-07-25T06:35:45.664Z,23.74
2022-07-25T06:38:26.409Z,23.85
2022-07-25T06:41:12.021Z,23.86
2022-07-25T06:43:49.953Z,23.85
2022-07-25T06:46:35.839Z,24.03
2022-07-25T06:49:09.682Z,24.06
2022-07-25T06:51:46.886Z,23.82
2022-07-25T06:54:18.592Z,24.23
2022-07-25T06:56:51.000Z,24.64
2022-07-25T06:59:23.190Z,24.65
2022-07-25T07:02:00.127Z,24.75
2022-07-25T07:04:33.025Z,24.65
2022-07-25T07:07:13.127Z,24.73
2022-07-25T07:09:52.013Z,24.92
2022-07-25T07:12:23.142Z,25.23
2022-07-25T07:14:53.397Z,25.36
2022-07-25T07:20:09.257Z,25.67
2022-07-25T07:22:51.683Z,25.66
2022-07-25T07:25:28.643Z,25.54
2022-07-25T07:28:06.170Z,25.76
2022-07-25T07:33:50.067Z,26.06
2022-07-25T07:36:26.810Z,26.05
2022-07-25T07:39:04.095Z,26.20
2022-07-25T07:41:36.555Z,26.37
2022-07-25T07:44:17.223Z,26.46
2022-07-25T07:46:55.283Z,26.56
2022-07-25T07:49:28.768Z,26.55
2022-07-25T07:52:05.771Z,26.61
2022-07-25T07:54:59.296Z,26.57
2022-07-25T07:57:30.104Z,26.77
2022-07-25T08:00:11.488Z,26.96
2022-07-25T08:02:58.847Z,27.21
2022-07-25T08:05:32.805Z,27.17
2022-07-25T08:08:10.125Z,27.17
2022-07-25T08:10:43.401Z,27.33
2022-07-25T08:13:28.164Z,27.56
2022-07-25T08:16:03.317Z,27.66
2022-07-25T08:18:36.596Z,28.04
2022-07-25T08:21:08.827Z,28.30
2022-07-25T08:23:40.033Z,28.55
2022-07-25T08:26:16.705Z,28.30
2022-07-25T08:29:04.929Z,28.26
2022-07-25T08:31:39.086Z,28.23
2022-07-25T08:34:15.630Z,28.72
2022-07-25T08:36:54.874Z,28.81
2022-07-25T08:42:11.222Z,28.44
2022-07-25T08:44:48.600Z,28.68
2022-07-25T08:47:26.534Z,28.76
2022-07-25T08:49:55.078Z,28.75
2022-07-25T08:52:30.746Z,28.77
2022-07-25T08:54:59.636Z,28.96
2022-07-25T08:57:33.477Z,29.00
2022-07-25T09:00:03.489Z,29.09
2022-07-25T09:02:40.662Z,29.41
2022-07-25T09:05:11.123Z,29.74
2022-07-25T09:07:47.826Z,29.80
2022-07-25T09:10:35.080Z,30.07
2022-07-25T09:13:20.846Z,29.92
2022-07-25T09:16:01.058Z,30.35
2022-07-25T09:18:37.537Z,30.32
2022-07-25T09:21:15.961Z,30.22
2022-07-25T09:23:54.158Z,30.54
2022-07-25T09:26:25.611Z,30.85
2022-07-25T09:28:56.671Z,30.59
2022-07-25T09:31:35.076Z,30.50
2022-07-25T09:34:26.422Z,30.88
2022-07-25T09:36:56.978Z,30.75
2022-07-25T09:39:46.444Z,30.38
2022-07-25T09:42:25.230Z,30.28
2022-07-25T09:45:15.300Z,30.55
2022-07-25T09:48:16.073Z,30.49
2022-07-25T09:50:53.231Z,30.70
2022-07-25T09:53:24.158Z,30.65
2022-07-25T09:56:01.049Z,31.08
2022-07-25T09:58:40.849Z,31.39
2022-07-25T10:01:10.854Z,30.74
2022-07-25T10:04:19.189Z,31.29
2022-07-25T10:07:20.244Z,31.55
2022-07-25T10:09:54.228Z,31.74
2022-07-25T10:12:28.171Z,32.16
2022-07-25T10:15:32.176Z,32.03
2022-07-25T10:18:13.434Z,31.49
2022-07-25T10:20:47.025Z,31.35
2022-07-25T10:23:31.942Z,31.46
2022-07-25T10:26:16.021Z,31.57
2022-07-25T10:28:48.720Z,31.44
2022-07-25T10:31:51.622Z,32.14
2022-07-25T10:34:34.733Z,32.46
2022-07-25T10:37:24.529Z,32.26
2022-07-25T10:39:53.260Z,32.52
2022-07-25T10:42:36.802Z,32.44
2022-07-25T10:45:13.214Z,32.89
2022-07-25T10:47:55.185Z,33.18
2022-07-25T10:50:54.534Z,33.30
2022-07-25T10:54:02.453Z,32.92
2022-07-25T10:56:31.496Z,32.49
2022-07-25T10:59:03.023Z,32.94
2022-07-25T11:01:37.470Z,33.11
2022-07-25T11:04:12.205Z,32.62
2022-07-25T11:06:44.596Z,33.18
2022-07-25T11:09:29.744Z,33.20
2022-07-25T11:12:04.491Z,33.61
2022-07-25T11:14:43.442Z,32.88
2022-07-25T11:17:32.671Z,33.25
2022-07-25T11:20:05.767Z,34.12
2022-07-25T11:22:48.523Z,34.37
2022-07-25T11:25:21.832Z,34.16
2022-07-25T11:28:12.654Z,33.90
2022-07-25T11:30:46.743Z,34.04
2022-07-25T11:33:19.851Z,33.90
2022-07-25T11:35:51.303Z,33.81
2022-07-25T11:38:33.728Z,34.30
2022-07-25T11:41:08.182Z,34.38
2022-07-25T11:43:52.573Z,34.14
2022-07-25T11:46:34.333Z,34.45
2022-07-25T11:49:09.466Z,34.74
2022-07-25T11:51:49.807Z,35.11
2022-07-25T11:54:23.865Z,35.75
2022-07-25T11:56:57.706Z,35.57
2022-07-25T11:59:26.921Z,35.44
2022-07-25T12:01:59.482Z,35.12
2022-07-25T12:04:34.185Z,35.36
2022-07-25T12:07:06.761Z,34.66
2022-07-25T12:09:38.273Z,34.79
2022-07-25T12:12:17.776Z,35.02
2022-07-25T12:14:51.786Z,35.59
2022-07-25T12:17:26.100Z,35.39
2022-07-25T12:19:57.405Z,35.66
2022-07-25T12:22:28.259Z,35.41
2022-07-25T12:25:04.418Z,35.62
2022-07-25T12:27:32.943Z,35.82
2022-07-25T12:30:07.613Z,34.84
2022-07-25T12:32:44.579Z,35.25
2022-07-25T12:35:21.554Z,35.71
2022-07-25T12:37:59.215Z,36.08
2022-07-25T12:40:31.806Z,35.96
2022-07-25T12:43:09.041Z,35.36
2022-07-25T12:45:40.022Z,35.66
2022-07-25T12:48:17.523Z,36.52
2022-07-25T12:51:00.733Z,36.75
2022-07-25T12:53:37.816Z,37.00
2022-07-25T12:56:19.958Z,37.24
2022-07-25T12:58:56.770Z,37.05
2022-07-25T13:01:30.789Z,37.10
2022-07-25T13:04:03.112Z,37.33
2022-07-25T13:06:38.489Z,37.27
2022-07-25T13:09:10.650Z,37.54
2022-07-25T13:11:49.688Z,37.13
2022-07-25T13:14:19.952Z,36.92
2022-07-25T13:16:54.905Z,37.51
2022-07-25T13:19:25.841Z,37.14
2022-07-25T13:21:59.368Z,35.95
2022-07-25T13:24:31.585Z,35.97
2022-07-25T13:26:59.923Z,37.10
2022-07-25T13:29:32.907Z,37.54
2022-07-25T13:32:12.366Z,38.00
2022-07-25T13:34:50.130Z,38.21
2022-07-25T13:37:20.922Z,38.17
2022-07-25T13:40:01.132Z,37.86
2022-07-25T13:42:31.381Z,37.89
2022-07-25T13:45:02.518Z,37.93
2022-07-25T13:50:23.244Z,37.92
2022-07-25T13:52:57.195Z,38.12
2022-07-25T13:55:27.635Z,38.16
2022-07-25T13:57:59.148Z,38.59
2022-07-25T14:00:31.162Z,38.64
2022-07-25T14:03:08.689Z,38.76
2022-07-25T14:05:46.120Z,39.04
2022-07-25T14:08:29.312Z,38.93
2022-07-25T14:11:03.138Z,38.96
2022-07-25T14:13:37.417Z,38.40
2022-07-25T14:16:18.366Z,38.33
2022-07-25T14:18:52.782Z,38.82
2022-07-25T14:21:30.480Z,39.77
2022-07-25T14:24:03.720Z,40.56
2022-07-25T14:26:44.401Z,42.50
2022-07-25T14:29:25.938Z,43.18
2022-07-25T14:32:00.462Z,43.36
2022-07-25T14:34:35.448Z,44.63
2022-07-25T14:37:04.312Z,42.51
2022-07-25T14:39:36.772Z,44.52
2022-07-25T14:42:07.484Z,43.63
2022-07-25T14:44:47.179Z,45.05
2022-07-25T14:47:29.313Z,44.94
2022-07-25T14:50:01.022Z,44.96
2022-07-25T14:52:36.960Z,44.42
2022-07-25T14:55:16.905Z,44.84
2022-07-25T14:57:46.092Z,44.11
2022-07-25T15:00:29.429Z,44.80
2022-07-25T15:03:08.081Z,45.81
2022-07-25T15:05:46.391Z,46.05
2022-07-25T15:08:24.357Z,44.54
2022-07-25T15:10:55.309Z,43.55
2022-07-25T15:13:35.869Z,42.90
2022-07-25T15:16:15.587Z,42.04
2022-07-25T15:19:14.726Z,43.02
2022-07-25T15:21:38.609Z,44.69
2022-07-25T15:24:11.238Z,41.85
2022-07-25T15:26:44.145Z,43.20
2022-07-25T15:29:27.723Z,44.87
2022-07-25T15:31:56.878Z,43.04
2022-07-25T15:34:31.660Z,43.38
2022-07-25T15:37:00.357Z,42.72
2022-07-25T15:39:37.457Z,43.72
2022-07-25T15:42:11.245Z,41.96
2022-07-25T15:44:42.676Z,42.37
2022-07-25T15:47:18.665Z,42.36
2022-07-25T15:49:50.888Z,42.64
2022-07-25T15:52:24.894Z,41.60
2022-07-25T15:55:05.306Z,40.99
2022-07-25T15:57:36.928Z,40.65
2022-07-25T16:00:17.261Z,39.52
2022-07-25T16:02:49.749Z,38.52
2022-07-25T16:05:23.401Z,38.23
2022-07-25T16:08:10.178Z,38.60
2022-07-25T16:10:46.512Z,37.74
2022-07-25T16:13:18.581Z,37.30
2022-07-25T16:15:54.744Z,37.24
2022-07-25T16:18:28.221Z,37.06
2022-07-25T16:21:01.718Z,36.73
2022-07-25T16:23:45.296Z,36.70
2022-07-25T16:26:20.637Z,36.84
2022-07-25T16:29:06.104Z,36.49
2022-07-25T16:31:35.861Z,36.23
2022-07-25T16:34:14.506Z,35.98
2022-07-25T16:36:49.016Z,36.11
2022-07-25T16:39:31.931Z,36.12
2022-07-25T16:42:07.971Z,35.33
2022-07-25T16:44:50.637Z,35.21
2022-07-25T16:47:26.990Z,35.39
2022-07-25T16:50:10.395Z,35.17
2022-07-25T16:52:46.537Z,34.94
2022-07-25T16:55:22.999Z,34.82
2022-07-25T16:57:58.848Z,34.81
2022-07-25T17:00:36.915Z,34.83
2022-07-25T17:03:06.323Z,34.69
2022-07-25T17:05:43.774Z,34.69
2022-07-25T17:08:17.640Z,34.63
2022-07-25T17:10:46.488Z,34.27
2022-07-25T17:13:20.932Z,34.29
2022-07-25T17:15:51.776Z,34.12
2022-07-25T17:18:24.043Z,34.12
2022-07-25T17:21:04.880Z,34.16
2022-07-25T17:23:38.471Z,34.16
2022-07-25T17:26:09.751Z,34.07
2022-07-25T17:28:40.225Z,33.95
2022-07-25T17:31:14.060Z,33.82
2022-07-25T17:33:51.534Z,33.80
2022-07-25T17:36:30.913Z,33.70
2022-07-25T17:39:00.002Z,33.70
2022-07-25T17:41:33.643Z,33.44
2022-07-25T17:44:11.586Z,33.48
2022-07-25T17:46:47.031Z,33.30
2022-07-25T17:49:20.829Z,33.25
2022-07-25T17:52:03.709Z,32.99
2022-07-25T17:54:35.989Z,32.81
2022-07-25T17:57:06.324Z,32.79
2022-07-25T17:59:40.065Z,32.49
2022-07-25T18:02:10.649Z,32.39
2022-07-25T18:04:53.171Z,32.48
2022-07-25T18:07:24.753Z,32.26
2022-07-25T18:10:00.858Z,32.20
2022-07-25T18:12:42.634Z,32.13
2022-07-25T18:15:18.270Z,32.14
2022-07-25T18:17:59.256Z,31.95
2022-07-25T18:20:32.443Z,31.79
2022-07-25T18:23:11.336Z,31.80
2022-07-25T18:25:41.494Z,31.74
2022-07-25T18:28:20.320Z,31.59
2022-07-25T18:30:53.781Z,31.29
2022-07-25T18:33:27.336Z,31.15
2022-07-25T18:35:55.660Z,30.81
2022-07-25T18:38:29.127Z,30.64
2022-07-25T18:41:26.358Z,30.40
2022-07-25T18:43:58.356Z,30.29
2022-07-25T18:46:33.644Z,30.02
2022-07-25T18:49:07.025Z,30.13
2022-07-25T18:51:38.166Z,30.16
2022-07-25T18:54:23.495Z,30.07
2022-07-25T18:56:59.604Z,29.89
2022-07-25T18:59:33.865Z,29.94
2022-07-25T19:02:22.108Z,29.82
2022-07-25T19:04:56.034Z,29.58
2022-07-25T19:07:33.210Z,29.29
2022-07-25T19:10:13.307Z,29.13
2022-07-25T19:12:43.800Z,28.83
2022-07-25T19:15:18.127Z,28.78
2022-07-25T19:17:56.794Z,28.66
2022-07-25T19:20:28.920Z,28.46
2022-07-25T19:23:02.376Z,27.73
2022-07-25T19:25:47.624Z,28.30
2022-07-25T19:28:18.891Z,28.16
2022-07-25T19:30:49.717Z,28.34
2022-07-25T19:33:21.633Z,28.34
2022-07-25T19:35:50.746Z,28.37
2022-07-25T19:38:37.716Z,28.51
2022-07-25T19:41:18.957Z,28.31
2022-07-25T19:43:52.207Z,28.15
2022-07-25T19:46:32.388Z,28.05
2022-07-25T19:49:10.576Z,27.97
2022-07-25T19:51:41.632Z,27.80
2022-07-25T19:54:11.700Z,27.61
2022-07-25T19:56:43.982Z,27.60
2022-07-25T19:59:15.048Z,27.56
2022-07-25T20:01:50.494Z,27.27
2022-07-25T20:04:26.674Z,27.08
2022-07-25T20:07:05.217Z,27.20
2022-07-25T20:09:36.055Z,26.84
2022-07-25T20:12:04.649Z,26.57
2022-07-25T20:14:44.098Z,26.60
2022-07-25T20:17:16.301Z,26.72
2022-07-25T20:19:48.986Z,26.76
2022-07-25T20:25:01.751Z,26.85
2022-07-25T20:27:39.194Z,26.89
2022-07-25T20:30:22.349Z,26.71
2022-07-25T20:32:54.225Z,26.86
2022-07-25T20:35:22.430Z,26.65
2022-07-25T20:37:54.131Z,26.61
2022-07-25T20:40:27.209Z,26.58
2022-07-25T20:43:00.150Z,26.12
2022-07-25T20:45:31.907Z,26.01
2022-07-25T20:48:08.855Z,25.90
2022-07-25T20:53:22.540Z,25.80
2022-07-25T20:56:01.718Z,25.94
2022-07-25T20:58:39.835Z,25.77
2022-07-25T21:01:28.328Z,25.86
2022-07-25T21:04:07.284Z,25.51
2022-07-25T21:06:42.250Z,25.53
2022-07-25T21:09:19.592Z,25.63
2022-07-25T21:11:47.909Z,25.20
2022-07-25T21:14:25.582Z,25.27
2022-07-25T21:16:56.363Z,25.16
2022-07-25T21:19:33.177Z,25.43
2022-07-25T21:22:17.433Z,25.27
2022-07-25T21:24:58.443Z,24.64
2022-07-25T21:27:29.175Z,24.72
2022-07-25T21:30:00.087Z,24.91
2022-07-25T21:32:31.016Z,24.47
2022-07-25T21:35:02.080Z,24.97
2022-07-25T21:37:38.226Z,25.35
2022-07-25T21:40:10.191Z,25.40
2022-07-25T21:42:43.077Z,25.25
2022-07-25T21:45:24.273Z,25.15
2022-07-25T21:48:02.311Z,24.60
2022-07-25T21:50:44.248Z,24.77
2022-07-25T21:53:29.917Z,24.87
2022-07-25T21:56:04.414Z,24.94
2022-07-25T21:58:38.461Z,24.99
2022-07-25T22:01:11.914Z,24.87
2022-07-25T22:03:49.117Z,24.85
2022-07-25T22:06:23.079Z,24.48
2022-07-25T22:08:59.754Z,24.12
2022-07-25T22:11:42.318Z,24.00
2022-07-25T22:14:15.974Z,24.23
2022-07-25T22:16:49.908Z,24.25
2022-07-25T22:19:22.472Z,24.38
2022-07-25T22:21:55.971Z,24.12
2022-07-25T22:24:29.513Z,24.40
2022-07-25T22:27:00.493Z,24.54
2022-07-25T22:29:39.911Z,24.34
2022-07-25T22:32:11.864Z,24.35
2022-07-25T22:34:47.033Z,24.29
2022-07-25T22:37:15.970Z,23.87
2022-07-25T22:39:49.441Z,23.72
2022-07-25T22:42:20.203Z,23.70
2022-07-25T22:44:53.010Z,23.88
2022-07-25T22:47:25.772Z,23.83
2022-07-25T22:49:56.897Z,23.59
2022-07-25T22:52:31.183Z,23.47
2022-07-25T22:55:02.523Z,23.20
2022-07-25T22:57:37.751Z,23.09
2022-07-25T23:00:23.635Z,23.30
2022-07-25T23:03:01.081Z,23.38
2022-07-25T23:05:40.590Z,23.77
2022-07-25T23:08:27.564Z,23.45
2022-07-25T23:10:57.167Z,23.27
2022-07-25T23:13:34.258Z,23.60
2022-07-25T23:16:14.967Z,23.68
2022-07-25T23:18:47.001Z,23.28
2022-07-25T23:21:25.819Z,23.43
2022-07-25T23:23:59.676Z,23.61
2022-07-25T23:26:31.393Z,23.73
2022-07-25T23:29:02.729Z,23.65
2022-07-25T23:31:33.613Z,23.64
2022-07-25T23:34:07.763Z,23.89
2022-07-25T23:36:52.743Z,23.82
2022-07-25T23:39:29.083Z,23.98
2022-07-25T23:42:19.889Z,23.84
2022-07-25T23:44:54.110Z,23.88
2022-07-25T23:47:39.248Z,23.72
2022-07-25T23:50:13.816Z,23.56
2022-07-25T23:52:41.581Z,23.50
2022-07-25T23:55:15.262Z,23.48
2022-07-25T23:57:46.746Z,23.53
